createdAt,value
2022-08-11T00:02:01.070Z,8.43
2022-08-11T00:04:37.260Z,8.05
2022-08-11T00:07:08.878Z,8.23
2022-08-11T00:09:40.203Z,7.50
2022-08-11T00:12:15.502Z,7.97
2022-08-11T00:14:43.859Z,8.23
2022-08-11T00:17:15.104Z,8.05
2022-08-11T00:20:15.170Z,9.60
2022-08-11T00:22:35.401Z,7.70
2022-08-11T00:25:14.480Z,8.45
2022-08-11T00:27:42.670Z,9.02
2022-08-11T00:30:12.149Z,8.55
2022-08-11T00:32:43.004Z,8.77
2022-08-11T00:35:52.013Z,8.70
2022-08-11T00:38:04.179Z,9.17
2022-08-11T00:40:44.644Z,9.55
2022-08-11T00:43:50.189Z,8.07
2022-08-11T00:46:26.895Z,8.45
2022-08-11T00:49:18.858Z,8.82
2022-08-11T00:52:08.035Z,10.13
2022-08-11T00:55:16.108Z,10.25
2022-08-11T00:57:57.289Z,9.40
2022-08-11T01:00:32.434Z,10.77
2022-08-11T01:03:13.712Z,8.45
2022-08-11T01:06:05.262Z,8.65
2022-08-11T01:08:44.411Z,7.90
2022-08-11T01:11:38.221Z,7.60
2022-08-11T01:14:42.719Z,7.40
2022-08-11T01:17:44.115Z,8.93
2022-08-11T01:21:06.078Z,9.00
2022-08-11T01:24:04.296Z,8.85
2022-08-11T01:27:32.803Z,8.55
2022-08-11T01:30:27.325Z,8.05
2022-08-11T01:33:39.655Z,7.82
2022-08-11T01:36:28.507Z,7.78
2022-08-11T01:39:18.723Z,8.65
2022-08-11T01:42:29.449Z,8.20
2022-08-11T01:45:20.532Z,7.20
2022-08-11T01:47:56.410Z,7.78
2022-08-11T01:50:51.899Z,8.15
2022-08-11T01:53:40.159Z,7.65
2022-08-11T01:56:10.598Z,8.45
2022-08-11T01:59:09.137Z,8.45
2022-08-11T02:02:21.840Z,9.32
2022-08-11T02:05:08.879Z,9.63
2022-08-11T02:07:58.493Z,10.25
2022-08-11T02:11:28.818Z,9.90
2022-08-11T02:14:21.084Z,9.38
2022-08-11T02:17:42.479Z,9.02
2022-08-11T02:20:51.016Z,9.00
2022-08-11T02:24:06.219Z,8.18
2022-08-11T02:26:39.114Z,8.15
2022-08-11T02:29:23.952Z,8.52
2022-08-11T02:32:29.576Z,8.57
2022-08-11T02:35:10.265Z,8.80
2022-08-11T02:38:09.775Z,8.57
2022-08-11T02:41:00.118Z,8.90
2022-08-11T02:43:57.334Z,9.00
2022-08-11T02:46:42.486Z,8.57
2022-08-11T02:50:02.516Z,8.88
2022-08-11T02:52:59.347Z,8.75
2022-08-11T02:55:57.189Z,8.30
2022-08-11T02:59:17.958Z,8.60
2022-08-11T03:01:51.174Z,7.50
2022-08-11T03:07:29.103Z,7.22
2022-08-11T03:10:21.076Z,7.45
2022-08-11T03:13:37.948Z,7.05
2022-08-11T03:16:42.757Z,7.55
2022-08-11T03:19:28.641Z,7.95
2022-08-11T03:22:22.409Z,6.95
2022-08-11T03:25:02.951Z,7.32
2022-08-11T03:27:52.884Z,6.82
2022-08-11T03:30:30.189Z,7.60
2022-08-11T03:33:44.690Z,7.82
2022-08-11T03:37:06.797Z,7.18
2022-08-11T03:40:00.282Z,6.95
2022-08-11T03:42:42.811Z,6.13
2022-08-11T03:48:05.210Z,6.47
2022-08-11T03:50:55.414Z,6.35
2022-08-11T03:53:45.650Z,6.72
2022-08-11T03:56:35.382Z,6.68
2022-08-11T03:59:38.548Z,6.47
2022-08-11T04:02:18.059Z,6.28
2022-08-11T04:05:25.016Z,6.00
2022-08-11T04:08:04.488Z,6.53
2022-08-11T04:11:02.944Z,6.32
2022-08-11T04:14:18.128Z,6.25
2022-08-11T04:17:19.993Z,5.85
2022-08-11T04:19:56.217Z,6.50
2022-08-11T04:22:45.806Z,6.38
2022-08-11T04:25:58.223Z,6.22
2022-08-11T04:28:35.191Z,6.00
2022-08-11T04:31:51.949Z,5.60
2022-08-11T04:34:57.325Z,5.55
2022-08-11T04:37:43.511Z,6.57
2022-08-11T04:40:55.203Z,5.80
2022-08-11T04:44:02.830Z,6.00
2022-08-11T04:47:03.197Z,6.03
2022-08-11T04:50:14.214Z,6.03
2022-08-11T04:53:25.300Z,6.10
2022-08-11T04:56:28.305Z,6.72
2022-08-11T04:59:34.365Z,6.28
2022-08-11T05:02:28.112Z,5.40
2022-08-11T05:05:33.889Z,6.70
2022-08-11T05:08:35.419Z,6.07
2022-08-11T05:11:29.831Z,5.82
2022-08-11T05:14:24.839Z,6.00
2022-08-11T05:17:18.779Z,5.63
2022-08-11T05:20:06.665Z,5.47
2022-08-11T05:22:53.847Z,5.88
2022-08-11T05:26:45.066Z,5.50
2022-08-11T05:29:21.302Z,5.35
2022-08-11T05:32:18.953Z,5.70
2022-08-11T05:34:54.946Z,6.05
2022-08-11T05:37:33.374Z,5.65
2022-08-11T05:40:24.855Z,6.13
2022-08-11T05:43:17.328Z,5.70
2022-08-11T05:46:07.125Z,6.40
2022-08-11T05:48:55.960Z,6.50
2022-08-11T05:51:54.658Z,6.20
2022-08-11T05:54:46.219Z,6.38
2022-08-11T05:57:49.461Z,7.00
2022-08-11T06:00:16.565Z,7.68
2022-08-11T06:02:55.622Z,7.38
2022-08-11T06:05:38.357Z,6.70
2022-08-11T06:08:14.089Z,7.32
2022-08-11T06:10:44.363Z,6.93
2022-08-11T06:13:17.164Z,6.95
2022-08-11T06:15:50.135Z,6.55
2022-08-11T06:18:18.252Z,7.32
2022-08-11T06:20:56.711Z,7.13
2022-08-11T06:23:31.073Z,6.88
2022-08-11T06:26:00.542Z,7.32
2022-08-11T06:28:38.111Z,7.35
2022-08-11T06:31:18.909Z,6.93
2022-08-11T06:34:00.044Z,6.85
2022-08-11T06:36:39.517Z,6.38
2022-08-11T06:39:12.929Z,7.40
2022-08-11T06:41:54.411Z,7.55
2022-08-11T06:44:40.848Z,7.13
2022-08-11T06:47:11.502Z,7.63
2022-08-11T06:50:05.566Z,7.78
2022-08-11T06:52:40.327Z,7.18
2022-08-11T06:55:58.250Z,7.75
2022-08-11T06:58:20.663Z,8.38
2022-08-11T07:00:53.619Z,7.45
2022-08-11T07:03:22.633Z,7.47
2022-08-11T07:06:03.447Z,7.65
2022-08-11T07:09:14.319Z,8.65
2022-08-11T07:12:22.891Z,8.48
2022-08-11T07:15:14.152Z,8.18
2022-08-11T07:18:09.950Z,8.13
2022-08-11T07:21:01.906Z,8.32
2022-08-11T07:23:53.124Z,8.60
2022-08-11T07:26:42.996Z,8.82
2022-08-11T07:29:16.424Z,8.95
2022-08-11T07:31:51.503Z,9.20
2022-08-11T07:34:28.391Z,9.25
2022-08-11T07:37:00.954Z,8.88
2022-08-11T07:39:33.472Z,9.27
2022-08-11T07:42:07.106Z,9.18
2022-08-11T07:44:55.383Z,10.02
2022-08-11T07:47:42.425Z,10.35
2022-08-11T07:50:29.217Z,10.68
2022-08-11T07:53:00.425Z,11.10
2022-08-11T07:55:50.858Z,10.77
2022-08-11T07:58:41.478Z,9.88
2022-08-11T08:01:41.797Z,10.35
2022-08-11T08:04:30.667Z,10.10
2022-08-11T08:07:17.585Z,10.07
2022-08-11T08:10:04.233Z,9.60
2022-08-11T08:12:50.997Z,10.07
2022-08-11T08:15:38.922Z,10.07
2022-08-11T08:18:26.210Z,10.50
2022-08-11T08:20:57.229Z,9.40
2022-08-11T08:23:36.046Z,9.90
2022-08-11T08:26:27.234Z,9.25
2022-08-11T08:29:16.791Z,8.60
2022-08-11T08:31:45.810Z,8.45
2022-08-11T08:34:14.548Z,7.70
2022-08-11T08:36:50.678Z,7.85
2022-08-11T08:39:22.421Z,7.63
2022-08-11T08:44:40.812Z,7.40
2022-08-11T08:47:15.440Z,7.03
2022-08-11T08:50:07.660Z,7.32
2022-08-11T08:52:43.892Z,7.43
2022-08-11T08:55:19.020Z,7.93
2022-08-11T08:57:50.331Z,7.05
2022-08-11T09:00:23.163Z,7.00
2022-08-11T09:02:52.710Z,6.70
2022-08-11T09:05:21.458Z,7.05
2022-08-11T09:07:51.421Z,6.90
2022-08-11T09:10:20.815Z,6.90
2022-08-11T09:12:49.267Z,6.65
2022-08-11T09:15:19.795Z,6.60
2022-08-11T09:17:50.564Z,6.00
2022-08-11T09:20:25.048Z,5.70
2022-08-11T09:26:30.897Z,4.68
2022-08-11T09:29:00.762Z,3.72
2022-08-11T09:31:38.926Z,4.63
2022-08-11T09:34:07.786Z,4.30
2022-08-11T09:36:54.157Z,4.13
2022-08-11T09:39:42.565Z,3.80
2022-08-11T09:42:16.243Z,3.53
2022-08-11T09:44:50.625Z,4.10
2022-08-11T09:47:30.628Z,4.55
2022-08-11T09:50:03.012Z,3.25
2022-08-11T09:52:38.296Z,3.42
2022-08-11T09:55:11.422Z,3.13
2022-08-11T09:58:05.293Z,2.80
2022-08-11T10:00:37.779Z,2.80
2022-08-11T10:05:53.411Z,2.85
2022-08-11T10:08:23.174Z,3.30
2022-08-11T10:10:50.910Z,3.03
2022-08-11T10:13:44.073Z,3.22
2022-08-11T10:16:16.147Z,2.95
2022-08-11T10:18:52.946Z,3.17
2022-08-11T10:21:37.734Z,2.80
2022-08-11T10:24:26.190Z,2.65
2022-08-11T10:26:55.321Z,3.08
2022-08-11T10:29:49.975Z,2.47
2022-08-11T10:32:58.768Z,2.40
2022-08-11T10:35:29.842Z,2.43
2022-08-11T10:38:08.587Z,2.20
2022-08-11T10:40:41.667Z,1.98
2022-08-11T10:43:59.316Z,2.10
2022-08-11T10:46:30.007Z,1.98
2022-08-11T10:48:59.395Z,1.85
2022-08-11T10:51:51.486Z,2.25
2022-08-11T10:54:41.959Z,1.90
2022-08-11T10:57:28.795Z,1.70
2022-08-11T10:59:58.021Z,2.38
2022-08-11T11:02:27.630Z,2.35
2022-08-11T11:05:13.590Z,2.33
2022-08-11T11:07:55.413Z,2.30
2022-08-11T11:10:23.189Z,2.47
2022-08-11T11:13:18.328Z,2.40
2022-08-11T11:16:06.435Z,2.28
2022-08-11T11:18:37.684Z,2.38
2022-08-11T11:21:11.190Z,2.30
2022-08-11T11:23:47.662Z,2.72
2022-08-11T11:26:36.188Z,2.83
2022-08-11T11:29:15.567Z,2.50
2022-08-11T11:31:53.539Z,2.50
2022-08-11T11:34:23.717Z,2.45
2022-08-11T11:36:55.565Z,2.65
2022-08-11T11:39:29.180Z,2.30
2022-08-11T11:42:00.145Z,2.80
2022-08-11T11:44:28.898Z,2.80
2022-08-11T11:46:57.309Z,2.70
2022-08-11T11:49:28.904Z,2.83
2022-08-11T11:51:58.270Z,2.67
2022-08-11T11:54:29.080Z,2.50
2022-08-11T11:57:19.135Z,2.78
2022-08-11T12:00:07.215Z,2.50
2022-08-11T12:02:40.429Z,2.60
2022-08-11T12:05:10.619Z,2.78
2022-08-11T12:08:10.357Z,2.35
2022-08-11T12:11:14.865Z,2.40
2022-08-11T12:16:33.423Z,2.50
2022-08-11T12:19:03.941Z,2.22
2022-08-11T12:21:32.599Z,2.22
2022-08-11T12:24:20.780Z,2.20
2022-08-11T12:27:15.815Z,2.22
2022-08-11T12:29:51.327Z,2.55
2022-08-11T12:32:23.588Z,2.17
2022-08-11T12:34:51.309Z,2.00
2022-08-11T12:37:24.087Z,2.20
2022-08-11T12:40:43.030Z,2.38
2022-08-11T12:43:37.839Z,2.10
2022-08-11T12:46:17.168Z,3.67
2022-08-11T12:49:05.929Z,2.45
2022-08-11T12:52:11.190Z,2.13
2022-08-11T12:54:58.072Z,2.05
2022-08-11T12:57:56.642Z,1.90
2022-08-11T13:00:44.502Z,2.03
2022-08-11T13:03:32.469Z,2.08
2022-08-11T13:06:05.503Z,1.73
2022-08-11T13:11:23.257Z,2.03
2022-08-11T13:13:57.395Z,1.90
2022-08-11T13:16:53.961Z,1.83
2022-08-11T13:19:23.627Z,1.85
2022-08-11T13:21:52.662Z,2.00
2022-08-11T13:24:22.001Z,1.95
2022-08-11T13:26:51.263Z,2.00
2022-08-11T13:29:20.427Z,2.00
2022-08-11T13:31:48.831Z,1.90
2022-08-11T13:34:20.800Z,1.90
2022-08-11T13:36:54.652Z,2.40
2022-08-11T13:39:25.965Z,2.00
2022-08-11T13:41:59.702Z,2.35
2022-08-11T13:44:31.294Z,2.75
2022-08-11T13:47:04.383Z,2.13
2022-08-11T13:49:39.703Z,2.20
2022-08-11T13:52:14.128Z,2.03
2022-08-11T13:54:42.967Z,1.70
2022-08-11T13:57:13.880Z,1.80
2022-08-11T14:00:23.350Z,1.98
2022-08-11T14:02:55.066Z,1.70
2022-08-11T14:05:39.301Z,1.40
2022-08-11T14:08:32.420Z,1.98
2022-08-11T14:12:21.328Z,1.90
2022-08-11T14:14:16.926Z,2.20
2022-08-11T14:16:46.864Z,1.50
2022-08-11T14:19:15.617Z,1.77
2022-08-11T14:22:07.578Z,1.40
2022-08-11T14:24:49.930Z,1.45
2022-08-11T14:28:22.117Z,1.03
2022-08-11T14:30:27.496Z,1.77
2022-08-11T14:32:56.658Z,1.30
2022-08-11T14:35:28.712Z,1.30
2022-08-11T14:37:59.343Z,1.15
2022-08-11T14:40:50.509Z,1.17
2022-08-11T14:44:10.489Z,1.30
2022-08-11T14:46:43.220Z,1.30
2022-08-11T14:49:13.176Z,1.50
2022-08-11T14:51:45.155Z,3.17
2022-08-11T14:54:34.770Z,2.67
2022-08-11T14:57:03.502Z,2.90
2022-08-11T14:59:32.765Z,3.03
2022-08-11T15:02:22.185Z,3.40
2022-08-11T15:04:51.387Z,3.72
2022-08-11T15:07:30.126Z,3.60
2022-08-11T15:10:13.134Z,3.97
2022-08-11T15:12:44.457Z,3.67
2022-08-11T15:15:31.191Z,3.47
2022-08-11T15:18:02.237Z,3.38
2022-08-11T15:20:53.638Z,3.60
2022-08-11T15:23:40.062Z,3.30
2022-08-11T15:26:58.332Z,3.42
2022-08-11T15:29:47.964Z,3.30
2022-08-11T15:32:23.462Z,3.47
2022-08-11T15:35:20.706Z,3.22
2022-08-11T15:37:54.946Z,3.78
2022-08-11T15:40:50.442Z,3.50
2022-08-11T15:43:58.364Z,4.13
2022-08-11T15:46:43.868Z,4.10
2022-08-11T15:49:23.718Z,4.90
2022-08-11T15:52:22.578Z,4.70
2022-08-11T15:54:52.250Z,4.95
2022-08-11T15:57:40.525Z,5.28
2022-08-11T16:00:29.033Z,5.25
2022-08-11T16:02:58.899Z,4.97
2022-08-11T16:05:45.510Z,5.68
2022-08-11T16:08:20.979Z,5.13
2022-08-11T16:11:02.032Z,4.80
2022-08-11T16:13:33.197Z,4.95
2022-08-11T16:16:15.508Z,5.30
2022-08-11T16:18:56.882Z,5.20
2022-08-11T16:21:35.257Z,5.50
2022-08-11T16:25:57.719Z,5.88
2022-08-11T16:27:08.862Z,5.95
2022-08-11T16:29:43.976Z,5.32
2022-08-11T16:32:18.043Z,5.72
2022-08-11T16:35:07.926Z,5.60
2022-08-11T16:37:55.401Z,4.93
2022-08-11T16:40:24.675Z,5.50
2022-08-11T16:43:12.414Z,5.72
2022-08-11T16:46:00.420Z,5.75
2022-08-11T16:48:37.378Z,5.90
2022-08-11T16:51:12.262Z,5.45
2022-08-11T16:54:00.218Z,5.68
2022-08-11T16:56:39.203Z,5.70
2022-08-11T16:59:18.076Z,5.20
2022-08-11T17:01:59.645Z,5.55
2022-08-11T17:05:14.838Z,5.50
2022-08-11T17:08:03.153Z,5.53
2022-08-11T17:11:04.003Z,5.40
2022-08-11T17:13:47.172Z,5.45
2022-08-11T17:16:21.227Z,4.97
2022-08-11T17:18:59.349Z,5.40
2022-08-11T17:21:36.938Z,5.30
2022-08-11T17:24:09.598Z,5.10
2022-08-11T17:26:59.895Z,5.32
2022-08-11T17:29:32.481Z,5.25
2022-08-11T17:32:21.514Z,5.35
2022-08-11T17:35:09.850Z,5.63
2022-08-11T17:37:38.592Z,5.10
2022-08-11T17:40:10.189Z,5.78
2022-08-11T17:42:58.317Z,5.63
2022-08-11T17:45:45.467Z,5.50
2022-08-11T17:48:25.915Z,4.70
2022-08-11T17:51:05.691Z,4.90
2022-08-11T17:54:10.233Z,5.22
2022-08-11T17:57:08.550Z,5.03
2022-08-11T17:59:53.184Z,4.80
2022-08-11T18:02:59.216Z,4.63
2022-08-11T18:05:31.499Z,4.65
2022-08-11T18:08:19.938Z,4.80
2022-08-11T18:11:07.831Z,5.18
2022-08-11T18:13:56.683Z,4.70
2022-08-11T18:16:42.974Z,4.75
2022-08-11T18:19:30.843Z,4.78
2022-08-11T18:22:27.072Z,5.32
2022-08-11T18:25:28.245Z,4.60
2022-08-11T18:28:15.556Z,4.80
2022-08-11T18:31:06.645Z,5.18
2022-08-11T18:34:07.407Z,4.90
2022-08-11T18:37:22.096Z,4.85
2022-08-11T18:40:26.178Z,4.22
2022-08-11T18:43:16.499Z,4.80
2022-08-11T18:46:07.761Z,4.60
2022-08-11T18:49:00.544Z,4.53
2022-08-11T18:51:47.293Z,4.05
2022-08-11T18:54:37.417Z,4.18
2022-08-11T18:57:27.291Z,4.35
2022-08-11T19:00:16.387Z,4.13
2022-08-11T19:03:04.823Z,4.28
2022-08-11T19:06:32.421Z,4.10
2022-08-11T19:09:05.376Z,3.95
2022-08-11T19:11:52.650Z,3.97
2022-08-11T19:14:41.573Z,3.97
2022-08-11T19:17:44.981Z,4.18
2022-08-11T19:20:38.986Z,3.90
2022-08-11T19:23:27.714Z,3.95
2022-08-11T19:26:15.864Z,3.97
2022-08-11T19:29:04.682Z,4.00
2022-08-11T19:31:51.666Z,3.95
2022-08-11T19:34:41.444Z,3.65
2022-08-11T19:37:29.498Z,3.92
2022-08-11T19:40:26.086Z,3.83
2022-08-11T19:43:23.606Z,3.50
2022-08-11T19:46:16.312Z,3.30
2022-08-11T19:49:09.610Z,3.38
2022-08-11T19:51:57.086Z,3.60
2022-08-11T19:54:45.834Z,3.13
2022-08-11T19:57:38.961Z,2.85
2022-08-11T20:00:37.760Z,3.50
2022-08-11T20:03:28.222Z,2.95
2022-08-11T20:06:18.086Z,2.80
2022-08-11T20:09:06.523Z,2.88
2022-08-11T20:11:57.613Z,3.00
2022-08-11T20:14:47.082Z,2.63
2022-08-11T20:17:34.302Z,3.03
2022-08-11T20:20:24.361Z,2.97
2022-08-11T20:23:12.847Z,2.97
2022-08-11T20:26:14.219Z,2.65
2022-08-11T20:29:09.258Z,3.00
2022-08-11T20:31:56.569Z,2.63
2022-08-11T20:34:43.460Z,2.70
2022-08-11T20:37:31.110Z,2.67
2022-08-11T20:40:23.675Z,2.47
2022-08-11T20:44:04.990Z,2.67
2022-08-11T20:46:16.757Z,2.90
2022-08-11T20:49:04.140Z,2.55
2022-08-11T20:51:52.974Z,2.65
2022-08-11T20:54:43.854Z,2.35
2022-08-11T20:57:59.389Z,2.67
2022-08-11T21:03:35.461Z,2.30
2022-08-11T21:06:26.224Z,2.60
2022-08-11T21:09:20.937Z,2.35
2022-08-11T21:12:13.471Z,2.42
2022-08-11T21:15:04.630Z,2.50
2022-08-11T21:18:06.084Z,2.40
2022-08-11T21:20:58.025Z,2.35
2022-08-11T21:23:51.128Z,2.38
2022-08-11T21:26:41.813Z,2.30
2022-08-11T21:29:28.970Z,2.55
2022-08-11T21:32:15.741Z,2.47
2022-08-11T21:35:03.042Z,2.20
2022-08-11T21:37:50.282Z,2.05
2022-08-11T21:40:39.497Z,2.60
2022-08-11T21:43:26.250Z,2.67
2022-08-11T21:46:13.680Z,2.65
2022-08-11T21:49:00.916Z,2.47
2022-08-11T21:51:46.706Z,2.90
2022-08-11T21:54:34.334Z,2.80
2022-08-11T21:57:22.079Z,2.75
2022-08-11T22:00:27.110Z,3.17
2022-08-11T22:03:13.976Z,2.97
2022-08-11T22:06:00.913Z,2.80
2022-08-11T22:08:47.701Z,2.70
2022-08-11T22:11:34.447Z,2.47
2022-08-11T22:14:20.943Z,3.00
2022-08-11T22:17:07.101Z,3.03
2022-08-11T22:19:56.232Z,2.78
2022-08-11T22:22:51.855Z,2.72
2022-08-11T22:25:51.292Z,2.80
2022-08-11T22:28:38.749Z,2.97
2022-08-11T22:31:27.272Z,2.40
2022-08-11T22:34:13.748Z,2.58
2022-08-11T22:37:04.810Z,2.67
2022-08-11T22:40:01.717Z,2.95
2022-08-11T22:42:51.835Z,2.60
2022-08-11T22:45:39.162Z,2.92
2022-08-11T22:48:26.514Z,3.13
2022-08-11T22:51:14.259Z,2.78
2022-08-11T22:54:01.969Z,2.90
2022-08-11T22:56:50.423Z,2.90
2022-08-11T22:59:37.852Z,3.10
2022-08-11T23:02:25.596Z,3.20
2022-08-11T23:05:12.916Z,3.22
2022-08-11T23:08:00.294Z,3.05
2022-08-11T23:10:46.947Z,2.97
2022-08-11T23:13:34.235Z,2.83
2022-08-11T23:16:20.576Z,2.90
2022-08-11T23:19:07.990Z,3.05
2022-08-11T23:21:54.675Z,2.72
2022-08-11T23:24:43.483Z,2.95
2022-08-11T23:27:30.455Z,3.00
2022-08-11T23:30:19.306Z,3.20
2022-08-11T23:33:09.057Z,2.78
2022-08-11T23:36:02.744Z,3.25
2022-08-11T23:38:51.989Z,2.83
2022-08-11T23:41:39.195Z,2.67
2022-08-11T23:44:27.496Z,2.67
2022-08-11T23:47:17.852Z,2.60
2022-08-11T23:50:05.925Z,2.75
2022-08-11T23:52:53.210Z,2.60
2022-08-11T23:55:39.851Z,2.30
2022-08-11T23:58:26.592Z,2.45
